Time;durP1;ratioP1;P1;durP2;ratioP2;P2;SDS_P1;SDS_P2;PMS_P1;PMS_P2;Temp;Humidity;BMP_temperature;BMP_pressure;BME280_temperature;BME280_humidity;BME280_pressure;Samples;Min_cycle;Max_cycle;Signal;HPM_P1;HPM_P2
2021/12/24 00:00:04;;;;;;;;;;;20.20;40.20;;;;;;5043457;28;19925;-56
2021/12/24 00:02:30;;;;;;;;;;;20.20;40.20;;;;;;5038462;28;19985;-54
2021/12/24 00:04:57;;;;;;;;;;;20.20;40.30;;;;;;5037358;28;20319;-52
2021/12/24 00:07:25;;;;;;;;;;;20.20;40.30;;;;;;5025319;28;19932;-53
2021/12/24 00:09:52;;;;;;;;;;;20.20;40.30;;;;;;5027395;28;20362;-54
2021/12/24 00:12:21;;;;;;;;;;;20.20;40.30;;;;;;5039313;28;19925;-54
2021/12/24 00:14:52;;;;;;;;;;;20.20;40.30;;;;;;5036250;28;19926;-56
2021/12/24 00:17:24;;;;;;;;;;;20.20;40.30;;;;;;5044600;28;19956;-54
2021/12/24 00:20:04;;;;;;;;;;;20.20;40.30;;;;;;5040724;28;19925;-51
2021/12/24 00:23:11;;;;;;;;;;;20.20;40.30;;;;;;5031036;28;19925;-58
2021/12/24 00:36:32;;;;;;;;;;;20.20;40.30;;;;;;5027877;28;20341;-57
2021/12/24 00:39:00;;;;;;;;;;;20.20;40.30;;;;;;5026188;28;20367;-56
2021/12/24 00:41:26;;;;;;;;;;;20.20;40.30;;;;;;5035030;28;20280;-53
2021/12/24 00:43:53;;;;;;;;;;;20.20;40.30;;;;;;5038795;28;20355;-55
2021/12/24 00:46:20;;;;;;;;;;;20.20;40.30;;;;;;5040401;28;20019;-57
2021/12/24 00:48:48;;;;;;;;;;;20.20;40.30;;;;;;5029076;28;19932;-54
2021/12/24 00:51:30;;;;;;;;;;;20.20;40.30;;;;;;5036472;28;19932;-55
2021/12/24 00:56:42;;;;;;;;;;;20.20;40.30;;;;;;5037149;28;19925;-55
2021/12/24 00:59:09;;;;;;;;;;;20.20;40.30;;;;;;5029442;28;19933;-54
2021/12/24 01:01:36;;;;;;;;;;;20.20;40.30;;;;;;5031130;28;20015;-54
2021/12/24 01:04:02;;;;;;;;;;;20.20;40.30;;;;;;5034014;28;20016;-58
2021/12/24 01:06:29;;;;;;;;;;;20.20;40.30;;;;;;5033947;28;20321;-54
2021/12/24 01:08:56;;;;;;;;;;;20.20;40.30;;;;;;5049315;28;19967;-54
2021/12/24 01:11:27;;;;;;;;;;;20.20;40.30;;;;;;5048718;28;19925;-56
2021/12/24 01:13:55;;;;;;;;;;;20.20;40.30;;;;;;5033050;28;19936;-52
2021/12/24 01:16:27;;;;;;;;;;;20.20;40.30;;;;;;5017825;28;19925;-52
2021/12/24 01:19:01;;;;;;;;;;;20.20;40.30;;;;;;5012964;28;20289;-55
2021/12/24 01:21:43;;;;;;;;;;;20.20;40.30;;;;;;5029465;28;19967;-54
2021/12/24 01:24:14;;;;;;;;;;;20.20;40.30;;;;;;5013666;28;19932;-54
2021/12/24 01:26:48;;;;;;;;;;;20.20;40.30;;;;;;5029244;28;19926;-54
2021/12/24 01:29:43;;;;;;;;;;;20.20;40.30;;;;;;5013615;28;19959;-54
2021/12/24 01:37:56;;;;;;;;;;;20.20;40.30;;;;;;5031291;28;20367;-54
2021/12/24 01:40:26;;;;;;;;;;;20.20;40.30;;;;;;5032255;28;19931;-54
2021/12/24 01:42:52;;;;;;;;;;;20.20;40.30;;;;;;5033254;28;20016;-55
2021/12/24 01:45:22;;;;;;;;;;;20.20;40.30;;;;;;5032013;28;19936;-55
2021/12/24 01:47:49;;;;;;;;;;;20.20;40.30;;;;;;5032733;28;20291;-55
2021/12/24 01:50:15;;;;;;;;;;;20.20;40.30;;;;;;5028569;28;19929;-56
2021/12/24 01:52:42;;;;;;;;;;;20.20;40.30;;;;;;5027697;28;19929;-53
2021/12/24 01:55:09;;;;;;;;;;;20.20;40.30;;;;;;5030736;28;20394;-53
2021/12/24 01:57:36;;;;;;;;;;;20.20;40.30;;;;;;5031670;28;20396;-55
2021/12/24 02:00:04;;;;;;;;;;;20.20;40.30;;;;;;5030316;28;19932;-58
2021/12/24 02:02:32;;;;;;;;;;;20.20;40.30;;;;;;5027889;28;20370;-54
2021/12/24 02:04:59;;;;;;;;;;;20.20;40.30;;;;;;5012431;28;19930;-55
2021/12/24 02:07:26;;;;;;;;;;;20.20;40.30;;;;;;5029911;28;20055;-53
2021/12/24 02:09:53;;;;;;;;;;;20.20;40.30;;;;;;5027740;28;20446;-52
2021/12/24 02:12:22;;;;;;;;;;;20.20;40.30;;;;;;5011749;28;20358;-55
2021/12/24 02:14:52;;;;;;;;;;;20.20;40.30;;;;;;5028112;28;19983;-55
2021/12/24 02:17:39;;;;;;;;;;;20.20;40.30;;;;;;5042142;28;19936;-55
2021/12/24 02:28:30;;;;;;;;;;;20.20;40.30;;;;;;5028156;28;19925;-56
2021/12/24 02:30:57;;;;;;;;;;;20.20;40.30;;;;;;5016544;28;20283;-57
2021/12/24 02:33:26;;;;;;;;;;;20.20;40.30;;;;;;5031124;28;19934;-55
2021/12/24 02:35:54;;;;;;;;;;;20.20;40.30;;;;;;5030738;28;19929;-53
2021/12/24 02:38:20;;;;;;;;;;;20.20;40.30;;;;;;5029855;28;20377;-56
2021/12/24 02:40:47;;;;;;;;;;;20.20;40.30;;;;;;5017012;28;20408;-52
2021/12/24 02:43:17;;;;;;;;;;;20.20;40.30;;;;;;5046825;28;19925;-56
2021/12/24 02:45:46;;;;;;;;;;;20.20;40.40;;;;;;5042526;28;19961;-54
2021/12/24 02:53:57;;;;;;;;;;;20.20;40.30;;;;;;5027238;28;19926;-51
2021/12/24 02:56:26;;;;;;;;;;;20.20;40.30;;;;;;5011403;28;20024;-52
2021/12/24 02:58:53;;;;;;;;;;;20.20;40.40;;;;;;5027377;28;20040;-57
2021/12/24 03:01:21;;;;;;;;;;;20.20;40.40;;;;;;5027250;28;20442;-55
2021/12/24 03:03:48;;;;;;;;;;;20.20;40.30;;;;;;5027367;28;19929;-56
2021/12/24 03:06:17;;;;;;;;;;;20.20;40.40;;;;;;5010794;28;19926;-55
2021/12/24 03:08:43;;;;;;;;;;;20.20;40.30;;;;;;5027104;28;19929;-49
2021/12/24 03:11:12;;;;;;;;;;;20.20;40.40;;;;;;5033444;28;19933;-54
2021/12/24 03:13:38;;;;;;;;;;;20.20;40.40;;;;;;5046551;28;19932;-54
2021/12/24 03:16:05;;;;;;;;;;;20.20;40.30;;;;;;5051828;28;19925;-50
2021/12/24 03:18:35;;;;;;;;;;;20.20;40.40;;;;;;5050178;28;19951;-50
2021/12/24 03:21:06;;;;;;;;;;;20.20;40.40;;;;;;5044546;28;20368;-49
2021/12/24 03:23:37;;;;;;;;;;;20.20;40.40;;;;;;5029649;28;20019;-57
2021/12/24 03:26:04;;;;;;;;;;;20.20;40.40;;;;;;5026318;28;20375;-53
2021/12/24 03:28:31;;;;;;;;;;;20.20;40.30;;;;;;5026235;28;20036;-51
2021/12/24 03:30:57;;;;;;;;;;;20.20;40.30;;;;;;5026747;28;20021;-55
2021/12/24 03:33:24;;;;;;;;;;;20.20;40.30;;;;;;5029825;28;19987;-49
2021/12/24 03:35:51;;;;;;;;;;;20.20;40.40;;;;;;5031603;28;19964;-51
2021/12/24 03:38:18;;;;;;;;;;;20.20;40.40;;;;;;5046328;28;20263;-49
2021/12/24 03:40:46;;;;;;;;;;;20.20;40.40;;;;;;5046722;28;19925;-52
2021/12/24 03:43:12;;;;;;;;;;;20.20;40.40;;;;;;5030042;28;20382;-50
2021/12/24 03:45:45;;;;;;;;;;;20.20;40.40;;;;;;5045904;28;20019;-52
2021/12/24 03:48:18;;;;;;;;;;;20.20;40.40;;;;;;5029109;28;19931;-49
2021/12/24 03:50:53;;;;;;;;;;;20.20;40.40;;;;;;5045067;28;19975;-54
2021/12/24 03:56:05;;;;;;;;;;;20.20;40.40;;;;;;5029393;28;19932;-53
2021/12/24 03:58:32;;;;;;;;;;;20.20;40.30;;;;;;5031343;28;19933;-53
2021/12/24 04:00:58;;;;;;;;;;;20.20;40.30;;;;;;5044230;28;20019;-52
2021/12/24 04:03:25;;;;;;;;;;;20.20;40.40;;;;;;5028544;28;20446;-58
2021/12/24 04:05:52;;;;;;;;;;;20.20;40.30;;;;;;5028110;28;19960;-55
2021/12/24 04:08:18;;;;;;;;;;;20.20;40.40;;;;;;5034329;28;19936;-53
2021/12/24 04:10:45;;;;;;;;;;;20.20;40.40;;;;;;5029917;28;19978;-51
2021/12/24 04:13:14;;;;;;;;;;;20.20;40.40;;;;;;5046457;28;19926;-59
2021/12/24 04:15:41;;;;;;;;;;;20.20;40.40;;;;;;5032463;28;19980;-49
2021/12/24 04:18:14;;;;;;;;;;;20.20;40.40;;;;;;5011360;28;19969;-51
2021/12/24 04:26:18;;;;;;;;;;;20.20;40.40;;;;;;4989692;28;19930;-58
2021/12/24 04:28:46;;;;;;;;;;;20.20;40.40;;;;;;5025639;28;19930;-54
2021/12/24 04:31:14;;;;;;;;;;;20.20;40.40;;;;;;5028314;28;20374;-52
2021/12/24 04:33:46;;;;;;;;;;;20.20;40.40;;;;;;5048571;28;19936;-56
2021/12/24 04:36:33;;;;;;;;;;;20.20;40.40;;;;;;5039652;28;19925;-51
2021/12/24 04:39:24;;;;;;;;;;;20.20;40.40;;;;;;5029377;28;19979;-55
2021/12/24 04:53:22;;;;;;;;;;;20.20;40.40;;;;;;5030124;28;19925;-52
2021/12/24 05:01:21;;;;;;;;;;;20.20;40.40;;;;;;5033768;28;19925;-54
2021/12/24 05:03:48;;;;;;;;;;;20.20;40.40;;;;;;5029898;28;20562;-53
2021/12/24 05:06:27;;;;;;;;;;;20.20;40.40;;;;;;5029802;28;19979;-55
2021/12/24 05:08:57;;;;;;;;;;;20.20;40.40;;;;;;5014345;28;19925;-51
2021/12/24 05:11:24;;;;;;;;;;;20.20;40.40;;;;;;5014293;28;19925;-54
2021/12/24 05:13:51;;;;;;;;;;;20.20;40.40;;;;;;5033692;28;19961;-54
2021/12/24 05:16:23;;;;;;;;;;;20.20;40.40;;;;;;5038694;28;19967;-57
2021/12/24 05:21:33;;;;;;;;;;;20.20;40.40;;;;;;5027357;28;19929;-54
2021/12/24 05:24:00;;;;;;;;;;;20.20;40.40;;;;;;5029134;28;20023;-55
2021/12/24 05:26:27;;;;;;;;;;;20.20;40.40;;;;;;5014235;28;19926;-59
2021/12/24 05:28:54;;;;;;;;;;;20.20;40.40;;;;;;5029264;28;19926;-55
2021/12/24 05:31:22;;;;;;;;;;;20.20;40.40;;;;;;5029119;28;19930;-57
2021/12/24 05:33:49;;;;;;;;;;;20.20;40.40;;;;;;5049130;28;19971;-52
2021/12/24 05:36:16;;;;;;;;;;;20.20;40.40;;;;;;5048846;28;19998;-57
2021/12/24 05:38:43;;;;;;;;;;;20.20;40.40;;;;;;5033117;28;19932;-57
2021/12/24 05:41:10;;;;;;;;;;;20.20;41.00;;;;;;5032111;28;19925;-59
2021/12/24 05:43:37;;;;;;;;;;;20.20;40.40;;;;;;5014529;28;19957;-53
2021/12/24 05:46:03;;;;;;;;;;;20.20;40.40;;;;;;5027350;28;19925;-57
2021/12/24 05:48:31;;;;;;;;;;;20.20;40.40;;;;;;5045594;28;20348;-60
2021/12/24 05:50:58;;;;;;;;;;;20.20;40.40;;;;;;5031843;28;20314;-57
2021/12/24 05:53:25;;;;;;;;;;;20.20;40.40;;;;;;5048154;28;19925;-55
2021/12/24 05:55:51;;;;;;;;;;;20.20;40.40;;;;;;5048306;28;20023;-55
2021/12/24 05:58:18;;;;;;;;;;;20.20;40.40;;;;;;5031927;28;19969;-56
2021/12/24 06:00:46;;;;;;;;;;;20.20;40.40;;;;;;5044638;28;20327;-58
2021/12/24 06:03:12;;;;;;;;;;;20.20;40.40;;;;;;5012259;28;20313;-57
2021/12/24 06:05:40;;;;;;;;;;;20.20;40.40;;;;;;5013229;28;19925;-55
2021/12/24 06:08:07;;;;;;;;;;;20.20;40.40;;;;;;5017214;28;19926;-54
2021/12/24 06:10:34;;;;;;;;;;;20.20;40.40;;;;;;5013330;28;19933;-55
2021/12/24 06:13:01;;;;;;;;;;;20.20;40.40;;;;;;5024703;28;19928;-57
2021/12/24 06:15:27;;;;;;;;;;;20.20;40.50;;;;;;5048595;28;19925;-53
2021/12/24 06:17:56;;;;;;;;;;;20.20;40.40;;;;;;5037392;28;19932;-56
2021/12/24 06:20:23;;;;;;;;;;;20.20;40.40;;;;;;5028208;28;19926;-54
2021/12/24 06:22:51;;;;;;;;;;;20.20;40.40;;;;;;5022899;28;19991;-59
2021/12/24 06:25:18;;;;;;;;;;;20.20;40.40;;;;;;5031775;28;20024;-56
2021/12/24 06:27:45;;;;;;;;;;;20.20;40.50;;;;;;5030867;28;20386;-56
2021/12/24 06:30:12;;;;;;;;;;;20.20;40.50;;;;;;5033229;28;19975;-58
2021/12/24 06:32:42;;;;;;;;;;;20.20;40.40;;;;;;5031152;28;20032;-58
2021/12/24 06:35:10;;;;;;;;;;;20.20;40.40;;;;;;5032940;28;19979;-52
2021/12/24 06:37:38;;;;;;;;;;;20.20;40.40;;;;;;5025225;28;19926;-55
2021/12/24 06:40:08;;;;;;;;;;;20.20;40.40;;;;;;5024596;28;19925;-51
2021/12/24 06:42:35;;;;;;;;;;;20.20;40.40;;;;;;5030157;28;19983;-50
2021/12/24 06:45:02;;;;;;;;;;;20.20;40.50;;;;;;5031458;28;19964;-57
2021/12/24 06:47:29;;;;;;;;;;;20.20;40.40;;;;;;5016969;28;19925;-56
2021/12/24 06:49:56;;;;;;;;;;;20.20;40.50;;;;;;5030570;28;19964;-56
2021/12/24 06:52:22;;;;;;;;;;;20.20;40.50;;;;;;5029663;28;19929;-58
2021/12/24 06:54:49;;;;;;;;;;;20.20;40.50;;;;;;5047053;28;20388;-56
2021/12/24 06:57:19;;;;;;;;;;;20.20;40.40;;;;;;5027828;28;19933;-53
2021/12/24 06:59:46;;;;;;;;;;;20.20;40.50;;;;;;5010712;28;19960;-54
2021/12/24 07:02:12;;;;;;;;;;;20.20;40.50;;;;;;5026746;28;19926;-57
2021/12/24 07:04:39;;;;;;;;;;;20.20;40.50;;;;;;5012473;28;20027;-56
2021/12/24 07:07:06;;;;;;;;;;;20.20;40.40;;;;;;5039017;28;20421;-56
2021/12/24 07:09:32;;;;;;;;;;;20.20;40.50;;;;;;5029629;28;19990;-56
2021/12/24 07:11:59;;;;;;;;;;;20.20;40.40;;;;;;5049331;28;19925;-52
2021/12/24 07:14:33;;;;;;;;;;;20.20;40.50;;;;;;5020431;28;20445;-56
2021/12/24 07:17:00;;;;;;;;;;;20.20;40.50;;;;;;5042477;28;19925;-58
2021/12/24 07:19:27;;;;;;;;;;;20.20;40.50;;;;;;5016067;28;19961;-57
2021/12/24 07:21:56;;;;;;;;;;;20.20;40.50;;;;;;5018217;28;19925;-58
2021/12/24 07:24:23;;;;;;;;;;;20.20;40.50;;;;;;5024021;28;19949;-55
2021/12/24 07:26:50;;;;;;;;;;;20.20;40.50;;;;;;5041362;28;20366;-54
2021/12/24 07:29:16;;;;;;;;;;;20.20;40.50;;;;;;5033207;28;20024;-55
2021/12/24 07:31:44;;;;;;;;;;;20.20;40.50;;;;;;5034720;28;19926;-55
2021/12/24 07:34:11;;;;;;;;;;;20.20;40.50;;;;;;5021780;28;19954;-57
2021/12/24 07:36:38;;;;;;;;;;;20.20;40.50;;;;;;5021512;28;19930;-56
2021/12/24 07:39:05;;;;;;;;;;;20.20;40.50;;;;;;5021403;28;20032;-60
2021/12/24 07:41:32;;;;;;;;;;;20.20;40.50;;;;;;5013239;28;19952;-59
2021/12/24 07:43:59;;;;;;;;;;;20.20;40.40;;;;;;5016439;28;19941;-58
2021/12/24 07:46:33;;;;;;;;;;;20.20;40.40;;;;;;5025962;28;20413;-55
2021/12/24 07:49:12;;;;;;;;;;;20.20;40.50;;;;;;5017312;28;19925;-61
2021/12/24 07:54:23;;;;;;;;;;;20.20;40.50;;;;;;5022090;28;19948;-55
2021/12/24 07:56:49;;;;;;;;;;;20.20;40.50;;;;;;5019103;28;19952;-57
2021/12/24 07:59:16;;;;;;;;;;;20.20;40.50;;;;;;5016784;28;19933;-60
2021/12/24 08:01:45;;;;;;;;;;;20.20;40.50;;;;;;5021091;28;20018;-54
2021/12/24 08:04:15;;;;;;;;;;;20.20;40.50;;;;;;5024572;28;19971;-56
2021/12/24 08:06:42;;;;;;;;;;;20.20;40.50;;;;;;5015811;28;19933;-56
2021/12/24 08:09:09;;;;;;;;;;;20.20;40.50;;;;;;5024021;28;20378;-58
2021/12/24 08:11:36;;;;;;;;;;;20.20;40.40;;;;;;5024377;28;19936;-54
2021/12/24 08:14:02;;;;;;;;;;;20.20;40.50;;;;;;5027173;28;20024;-59
2021/12/24 08:16:29;;;;;;;;;;;20.20;40.50;;;;;;5031429;28;19933;-57
2021/12/24 08:18:56;;;;;;;;;;;20.20;40.40;;;;;;5018007;28;20411;-54
2021/12/24 08:21:24;;;;;;;;;;;20.20;40.40;;;;;;5022200;28;19925;-58
2021/12/24 08:23:51;;;;;;;;;;;20.20;40.40;;;;;;5039246;28;19929;-59
2021/12/24 08:26:18;;;;;;;;;;;20.20;40.40;;;;;;5026689;28;20416;-55
2021/12/24 08:28:44;;;;;;;;;;;20.20;40.40;;;;;;5024220;28;19934;-60
2021/12/24 08:31:11;;;;;;;;;;;20.20;40.50;;;;;;5028395;28;19971;-58
2021/12/24 08:33:38;;;;;;;;;;;20.20;40.40;;;;;;5019834;28;19979;-58
2021/12/24 08:36:05;;;;;;;;;;;20.20;40.50;;;;;;5019367;28;19964;-60
2021/12/24 08:38:33;;;;;;;;;;;20.20;40.40;;;;;;5024289;28;20469;-56
2021/12/24 08:40:59;;;;;;;;;;;20.20;40.50;;;;;;5027975;28;20358;-55
2021/12/24 08:43:26;;;;;;;;;;;20.20;40.40;;;;;;5019774;28;19925;-54
2021/12/24 08:45:53;;;;;;;;;;;20.20;40.50;;;;;;5034897;28;19956;-58
2021/12/24 08:48:20;;;;;;;;;;;20.20;40.40;;;;;;5027085;28;19964;-53
2021/12/24 08:50:46;;;;;;;;;;;20.20;40.40;;;;;;5024310;28;19925;-56
2021/12/24 08:53:13;;;;;;;;;;;20.20;40.50;;;;;;5022696;28;20023;-57
2021/12/24 08:55:41;;;;;;;;;;;20.20;40.40;;;;;;5023251;28;19951;-58
2021/12/24 08:58:08;;;;;;;;;;;20.20;40.40;;;;;;5032400;28;20019;-54
2021/12/24 09:00:35;;;;;;;;;;;20.20;40.40;;;;;;5031147;28;20015;-56
2021/12/24 09:03:02;;;;;;;;;;;20.20;40.40;;;;;;5022766;28;19972;-57
2021/12/24 09:05:29;;;;;;;;;;;20.20;40.40;;;;;;5020531;28;19956;-54
2021/12/24 09:07:55;;;;;;;;;;;20.20;40.50;;;;;;5040482;28;19949;-60
2021/12/24 09:10:22;;;;;;;;;;;20.20;40.50;;;;;;5019703;28;20016;-57
2021/12/24 09:12:50;;;;;;;;;;;20.20;40.40;;;;;;5018825;28;19983;-58
2021/12/24 09:15:17;;;;;;;;;;;20.20;40.40;;;;;;5016040;28;20417;-56
2021/12/24 09:17:46;;;;;;;;;;;20.20;40.40;;;;;;5023987;28;20409;-57
2021/12/24 09:20:15;;;;;;;;;;;20.20;40.40;;;;;;5027867;28;20417;-56
2021/12/24 09:22:41;;;;;;;;;;;20.20;40.40;;;;;;5013270;28;20575;-55
2021/12/24 09:25:09;;;;;;;;;;;20.20;40.40;;;;;;5037902;28;20023;-55
2021/12/24 09:27:35;;;;;;;;;;;20.20;40.40;;;;;;5039722;28;20235;-54
2021/12/24 09:30:04;;;;;;;;;;;20.20;40.30;;;;;;5015021;28;20019;-58
2021/12/24 09:32:31;;;;;;;;;;;20.20;40.40;;;;;;5012888;28;19925;-58
2021/12/24 09:34:58;;;;;;;;;;;20.20;40.30;;;;;;5020926;28;20007;-56
2021/12/24 09:37:25;;;;;;;;;;;20.20;40.30;;;;;;5015187;28;19926;-58
2021/12/24 09:39:52;;;;;;;;;;;20.20;40.30;;;;;;5037069;28;19925;-56
2021/12/24 09:42:18;;;;;;;;;;;20.20;40.30;;;;;;5021997;28;20371;-60
2021/12/24 09:44:45;;;;;;;;;;;20.20;40.30;;;;;;5001593;28;19931;-54
2021/12/24 09:47:13;;;;;;;;;;;20.20;40.90;;;;;;5020884;28;20394;-55
2021/12/24 09:49:40;;;;;;;;;;;20.20;40.30;;;;;;5041711;28;19929;-58
2021/12/24 09:52:07;;;;;;;;;;;20.20;40.30;;;;;;5024298;28;19940;-58
2021/12/24 09:54:34;;;;;;;;;;;20.20;40.30;;;;;;5021604;28;19926;-56
2021/12/24 09:57:01;;;;;;;;;;;20.20;40.30;;;;;;5037019;28;19987;-56
2021/12/24 09:59:28;;;;;;;;;;;20.20;40.30;;;;;;5020183;28;20355;-58
2021/12/24 10:01:59;;;;;;;;;;;20.20;40.30;;;;;;5017658;28;19979;-55
2021/12/24 10:04:28;;;;;;;;;;;20.20;40.30;;;;;;5017185;28;20333;-51
2021/12/24 10:06:55;;;;;;;;;;;20.20;40.30;;;;;;5022172;28;20382;-57
2021/12/24 10:09:22;;;;;;;;;;;20.20;40.30;;;;;;5019500;28;20395;-55
2021/12/24 10:11:50;;;;;;;;;;;20.20;40.30;;;;;;5018084;28;19988;-54
2021/12/24 10:14:17;;;;;;;;;;;20.20;40.30;;;;;;5037846;28;19932;-53
2021/12/24 10:16:44;;;;;;;;;;;20.20;40.30;;;;;;5019856;28;19929;-58
2021/12/24 10:19:11;;;;;;;;;;;20.20;40.20;;;;;;5020363;28;19987;-58
2021/12/24 10:21:39;;;;;;;;;;;20.20;40.30;;;;;;5017246;28;19980;-55
2021/12/24 10:24:11;;;;;;;;;;;20.20;40.20;;;;;;5038332;28;19925;-53
2021/12/24 10:26:38;;;;;;;;;;;20.20;40.20;;;;;;5021700;28;19925;-56
2021/12/24 10:29:05;;;;;;;;;;;20.20;40.20;;;;;;5021967;28;19929;-56
2021/12/24 10:31:33;;;;;;;;;;;20.20;40.20;;;;;;5028926;28;19960;-57
2021/12/24 10:34:21;;;;;;;;;;;20.20;40.30;;;;;;5030429;28;19936;-56
2021/12/24 10:37:00;;;;;;;;;;;20.20;40.20;;;;;;5027038;28;19926;-53
2021/12/24 10:39:28;;;;;;;;;;;20.20;40.20;;;;;;5024485;28;20417;-54
2021/12/24 10:41:55;;;;;;;;;;;20.20;40.20;;;;;;5022979;28;19937;-54
2021/12/24 10:44:22;;;;;;;;;;;20.20;40.20;;;;;;5016458;28;20028;-57
2021/12/24 10:46:59;;;;;;;;;;;20.20;40.10;;;;;;5041814;28;19932;-52
2021/12/24 10:49:37;;;;;;;;;;;20.20;40.10;;;;;;5036975;28;20020;-56
2021/12/24 10:52:14;;;;;;;;;;;20.20;40.20;;;;;;5029749;28;20023;-56
2021/12/24 10:54:51;;;;;;;;;;;20.20;40.20;;;;;;5017148;28;19960;-58
2021/12/24 10:57:18;;;;;;;;;;;20.20;40.20;;;;;;5016809;28;19937;-52
2021/12/24 10:59:45;;;;;;;;;;;20.20;40.20;;;;;;5025312;28;20413;-53
2021/12/24 11:02:12;;;;;;;;;;;20.20;40.20;;;;;;5023269;28;19925;-54
2021/12/24 11:04:39;;;;;;;;;;;20.20;40.20;;;;;;5023747;28;19925;-55
2021/12/24 11:07:08;;;;;;;;;;;20.20;40.30;;;;;;5024937;28;19925;-54
2021/12/24 11:09:37;;;;;;;;;;;20.20;40.30;;;;;;5022016;28;20530;-57
2021/12/24 11:12:05;;;;;;;;;;;20.20;40.30;;;;;;5021452;28;19925;-50
2021/12/24 11:14:32;;;;;;;;;;;20.20;40.30;;;;;;5037295;28;19969;-55
2021/12/24 11:16:59;;;;;;;;;;;20.20;40.30;;;;;;5024333;28;20419;-56
2021/12/24 11:19:28;;;;;;;;;;;20.20;40.30;;;;;;5024642;28;20015;-54
2021/12/24 11:22:03;;;;;;;;;;;20.20;40.30;;;;;;5045227;28;19929;-55
2021/12/24 11:24:32;;;;;;;;;;;20.20;40.20;;;;;;5024847;28;20024;-53
2021/12/24 11:26:59;;;;;;;;;;;20.20;40.10;;;;;;5025785;28;20378;-49
2021/12/24 11:29:25;;;;;;;;;;;20.20;40.00;;;;;;5027741;28;19929;-57
2021/12/24 11:31:56;;;;;;;;;;;20.20;39.70;;;;;;5023713;28;20331;-56
2021/12/24 11:34:22;;;;;;;;;;;20.10;39.40;;;;;;5021728;28;19930;-54
2021/12/24 11:36:49;;;;;;;;;;;20.10;39.40;;;;;;5029088;28;19925;-53
2021/12/24 11:39:19;;;;;;;;;;;20.10;39.40;;;;;;5045016;28;20489;-55
2021/12/24 11:41:47;;;;;;;;;;;20.10;39.50;;;;;;5028931;28;19975;-51
2021/12/24 11:44:17;;;;;;;;;;;20.10;39.60;;;;;;5028695;28;20025;-56
2021/12/24 11:46:43;;;;;;;;;;;20.10;39.60;;;;;;5010384;28;20004;-54
2021/12/24 11:49:12;;;;;;;;;;;20.10;39.70;;;;;;5027613;28;19925;-59
2021/12/24 11:51:40;;;;;;;;;;;20.10;39.60;;;;;;5011304;28;19929;-54
2021/12/24 11:54:07;;;;;;;;;;;20.10;39.70;;;;;;5033524;28;19933;-60
2021/12/24 11:56:39;;;;;;;;;;;20.20;39.80;;;;;;5019923;28;20387;-52
2021/12/24 11:59:07;;;;;;;;;;;20.20;39.90;;;;;;5034956;28;19964;-53
2021/12/24 12:01:37;;;;;;;;;;;20.20;39.90;;;;;;5034668;28;19932;-55
2021/12/24 12:04:04;;;;;;;;;;;20.20;39.80;;;;;;5017545;28;19925;-55
2021/12/24 12:06:33;;;;;;;;;;;20.20;39.80;;;;;;5019214;28;19926;-54
2021/12/24 12:09:00;;;;;;;;;;;20.20;39.80;;;;;;5019754;28;20013;-56
2021/12/24 12:11:27;;;;;;;;;;;20.20;39.80;;;;;;5034863;28;20278;-56
2021/12/24 12:13:55;;;;;;;;;;;20.20;39.80;;;;;;5018453;28;20009;-52
2021/12/24 12:16:24;;;;;;;;;;;20.20;39.80;;;;;;5036893;28;19988;-52
2021/12/24 12:19:02;;;;;;;;;;;20.10;39.70;;;;;;5035641;28;19925;-55
2021/12/24 12:21:40;;;;;;;;;;;20.20;39.80;;;;;;5020555;28;19926;-54
2021/12/24 12:27:00;;;;;;;;;;;20.10;39.70;;;;;;5010191;28;20383;-53
2021/12/24 12:29:42;;;;;;;;;;;20.10;39.70;;;;;;5026059;28;20317;-53
2021/12/24 12:32:27;;;;;;;;;;;20.10;39.70;;;;;;5041713;28;19925;-55
2021/12/24 12:34:55;;;;;;;;;;;20.10;39.70;;;;;;5020442;28;19936;-57
2021/12/24 12:37:22;;;;;;;;;;;20.10;39.60;;;;;;5030442;28;20374;-55
2021/12/24 12:39:49;;;;;;;;;;;20.10;39.60;;;;;;5040988;28;20015;-54
2021/12/24 12:42:17;;;;;;;;;;;20.10;39.60;;;;;;5020701;28;20027;-53
2021/12/24 12:44:45;;;;;;;;;;;20.10;39.60;;;;;;5021005;28;19933;-56
2021/12/24 12:47:13;;;;;;;;;;;20.10;39.60;;;;;;5035875;28;20429;-54
2021/12/24 12:49:41;;;;;;;;;;;20.20;39.70;;;;;;5022701;28;19932;-54
2021/12/24 12:52:11;;;;;;;;;;;20.10;39.60;;;;;;5016765;28;19925;-54
2021/12/24 12:54:39;;;;;;;;;;;20.10;39.60;;;;;;5028558;28;20020;-54
2021/12/24 12:57:29;;;;;;;;;;;20.10;39.70;;;;;;5012713;28;19929;-53
2021/12/24 13:00:18;;;;;;;;;;;20.10;39.70;;;;;;5041181;28;20024;-57
2021/12/24 13:03:07;;;;;;;;;;;20.10;39.70;;;;;;5033500;28;20258;-55
2021/12/24 13:05:53;;;;;;;;;;;20.10;39.60;;;;;;5031602;28;19925;-56
2021/12/24 13:08:21;;;;;;;;;;;20.10;39.60;;;;;;5030591;28;20235;-55
2021/12/24 13:10:54;;;;;;;;;;;20.10;39.60;;;;;;5023572;28;19945;-52
2021/12/24 13:13:21;;;;;;;;;;;20.10;39.60;;;;;;5027631;28;19926;-54
2021/12/24 13:15:47;;;;;;;;;;;20.10;39.60;;;;;;5020408;28;19936;-52
2021/12/24 13:18:23;;;;;;;;;;;20.10;39.60;;;;;;5046596;28;19948;-51
2021/12/24 13:22:27;;;;;;;;;;;20.10;39.60;;;;;;5041559;28;19925;-52
2021/12/24 13:23:47;;;;;;;;;;;20.10;39.60;;;;;;5031819;28;19929;-50
2021/12/24 13:26:16;;;;;;;;;;;20.10;39.60;;;;;;5030918;28;19925;-52
2021/12/24 13:28:56;;;;;;;;;;;20.10;39.60;;;;;;5030690;28;19937;-53
2021/12/24 13:31:23;;;;;;;;;;;20.10;39.60;;;;;;5031147;28;19925;-52
2021/12/24 13:33:50;;;;;;;;;;;20.10;39.60;;;;;;5032026;28;20019;-50
2021/12/24 13:36:20;;;;;;;;;;;20.10;39.70;;;;;;5046794;28;19929;-50
2021/12/24 13:38:48;;;;;;;;;;;20.10;39.60;;;;;;5029553;28;19929;-54
2021/12/24 13:41:15;;;;;;;;;;;20.10;39.60;;;;;;5032407;28;19979;-55
2021/12/24 13:43:42;;;;;;;;;;;20.10;39.60;;;;;;5045839;28;20026;-52
2021/12/24 13:46:09;;;;;;;;;;;20.10;39.60;;;;;;5022527;28;19929;-52
2021/12/24 13:48:48;;;;;;;;;;;20.10;39.60;;;;;;5012449;28;19972;-57
2021/12/24 13:56:46;;;;;;;;;;;20.10;39.60;;;;;;5041052;28;20436;-56
2021/12/24 13:59:14;;;;;;;;;;;20.10;39.60;;;;;;5026055;28;19932;-52
2021/12/24 14:01:41;;;;;;;;;;;20.10;39.60;;;;;;5038602;28;19929;-53
2021/12/24 14:04:07;;;;;;;;;;;20.10;39.60;;;;;;5032757;28;19929;-52
2021/12/24 14:06:34;;;;;;;;;;;20.10;39.60;;;;;;5010865;28;19965;-52
2021/12/24 14:09:09;;;;;;;;;;;20.10;39.60;;;;;;5023666;28;20028;-50
2021/12/24 14:11:37;;;;;;;;;;;20.10;39.60;;;;;;5030053;28;19925;-49
2021/12/24 14:14:08;;;;;;;;;;;20.10;39.60;;;;;;5046251;28;19925;-49
2021/12/24 14:16:42;;;;;;;;;;;20.10;39.60;;;;;;5029513;28;20390;-50
2021/12/24 14:19:12;;;;;;;;;;;20.10;39.60;;;;;;5029429;28;19932;-51
2021/12/24 14:21:49;;;;;;;;;;;20.10;39.60;;;;;;5029429;28;20370;-52
2021/12/24 14:24:19;;;;;;;;;;;20.10;39.60;;;;;;5031380;28;20022;-51
2021/12/24 14:26:46;;;;;;;;;;;20.10;39.60;;;;;;5017677;28;19930;-52
2021/12/24 14:29:13;;;;;;;;;;;20.10;39.60;;;;;;5026007;28;19930;-53
2021/12/24 14:31:49;;;;;;;;;;;20.10;39.60;;;;;;5038470;28;19943;-52
2021/12/24 14:34:28;;;;;;;;;;;20.10;39.60;;;;;;5046779;28;19929;-51
2021/12/24 14:36:58;;;;;;;;;;;20.10;39.60;;;;;;5046072;28;19929;-47
2021/12/24 14:39:26;;;;;;;;;;;20.10;39.60;;;;;;5029318;28;19925;-49
2021/12/24 14:42:12;;;;;;;;;;;20.10;39.60;;;;;;5028693;28;19949;-55
2021/12/24 14:44:39;;;;;;;;;;;20.10;39.60;;;;;;5028295;28;19925;-55
2021/12/24 14:47:08;;;;;;;;;;;20.10;39.60;;;;;;5032354;28;19973;-51
2021/12/24 14:49:35;;;;;;;;;;;20.10;39.60;;;;;;5025843;28;19968;-53
2021/12/24 14:52:18;;;;;;;;;;;20.10;39.70;;;;;;5018063;28;19972;-48
2021/12/24 14:55:04;;;;;;;;;;;20.10;39.70;;;;;;5036268;28;20345;-54
2021/12/24 14:57:33;;;;;;;;;;;20.10;39.70;;;;;;5024263;28;20055;-54
2021/12/24 15:00:04;;;;;;;;;;;20.10;39.70;;;;;;5023861;28;19929;-55
2021/12/24 15:02:31;;;;;;;;;;;20.10;39.80;;;;;;5021546;28;20361;-51
2021/12/24 15:04:58;;;;;;;;;;;20.10;39.80;;;;;;5021127;28;19925;-49
2021/12/24 15:07:29;;;;;;;;;;;20.10;39.80;;;;;;5021386;28;20393;-52
2021/12/24 15:10:07;;;;;;;;;;;20.10;39.80;;;;;;5024565;28;19995;-55
2021/12/24 15:12:35;;;;;;;;;;;20.20;40.00;;;;;;5039460;28;19956;-52
2021/12/24 15:15:02;;;;;;;;;;;20.20;40.00;;;;;;5027576;28;19961;-51
2021/12/24 15:17:37;;;;;;;;;;;20.20;40.00;;;;;;5024461;28;19925;-58
2021/12/24 15:20:04;;;;;;;;;;;20.20;40.00;;;;;;5014407;28;19925;-51
2021/12/24 15:22:30;;;;;;;;;;;20.20;40.00;;;;;;5017400;28;19979;-51
2021/12/24 15:24:58;;;;;;;;;;;20.20;40.00;;;;;;5021998;28;19930;-53
2021/12/24 15:27:31;;;;;;;;;;;20.20;40.10;;;;;;5020236;28;20401;-51
2021/12/24 15:29:59;;;;;;;;;;;20.20;40.00;;;;;;5035071;28;20426;-50
2021/12/24 15:32:26;;;;;;;;;;;20.20;40.10;;;;;;5034910;28;20023;-51
2021/12/24 15:34:53;;;;;;;;;;;20.20;40.10;;;;;;5019813;28;19929;-50
2021/12/24 15:37:20;;;;;;;;;;;20.20;40.10;;;;;;5028105;28;20397;-54
2021/12/24 15:39:47;;;;;;;;;;;20.20;40.10;;;;;;5056180;28;19980;-60